Strona główna
METAR-TAF:

METAR-TAF

Lotnisko :

Norwood Memorial Airport

Norwood, Massachusetts, Stany Zjednoczone

Szerokość geograficzna: 42-11-27N, Długość geograficzna: 071-10-26W, wysokość: 15 m

Aktualna obserwacja pogody

Raport powstał 51 minut temu, godzina 09:53 UTC
Cisza
Temperatura -3°C
Wilgotność 80%
Ciśnienie 1021 hPa
Widzialność: 16.1 km
bezchmurnie

METAR: KOWD 220953Z AUTO 00000KT 10SM CLR M03/M06 A3015 RMK AO2 SLP211 I1000 T10331056

czas: 06:44 (10:44 UTC)


TAF: brakujący

Obserwacja i prognoza pogody dla ponad 4000 lotnisk (raport METAR i TAF).

Dostępne stacje oznaczono żółtymi i czerwonymi punktami na mapie.

Najedź kursorem aby zobaczyć nazwę stacji.

Kliknij aby zobaczyć obserwacje i prognozy pogody.

Aby zmienić mapę: kliknij na zielony przycisk z czarnym krzyżykiem, aby powiększyć; na zielony przycisk z myślnikiem, aby pomniejszyć; na zielone strzałki, aby przejść do map sąsiednich.


METAR-TAF: